createdAt,value
2022-11-06T00:02:08.306Z,10.18
2022-11-06T00:04:34.968Z,11.07
2022-11-06T00:07:01.904Z,11.88
2022-11-06T00:09:28.569Z,9.82
2022-11-06T00:11:55.361Z,9.43
2022-11-06T00:14:21.992Z,13.05
2022-11-06T00:16:48.781Z,7.80
2022-11-06T00:19:15.759Z,9.40
2022-11-06T00:21:45.641Z,10.98
2022-11-06T00:24:13.879Z,10.30
2022-11-06T00:26:40.798Z,10.32
2022-11-06T00:29:13.596Z,9.27
2022-11-06T00:31:40.233Z,10.63
2022-11-06T00:34:07.833Z,8.60
2022-11-06T00:36:34.673Z,10.20
2022-11-06T00:39:01.495Z,11.02
2022-11-06T00:41:28.645Z,11.57
2022-11-06T00:43:58.434Z,9.20
2022-11-06T00:46:25.533Z,9.77
2022-11-06T00:48:53.196Z,10.95
2022-11-06T00:51:22.758Z,9.63
2022-11-06T00:53:54.176Z,9.30
2022-11-06T00:56:21.108Z,10.88
2022-11-06T00:58:48.357Z,11.38
2022-11-06T01:01:23.745Z,11.90
2022-11-06T01:03:55.763Z,8.80
2022-11-06T01:06:26.490Z,12.15
2022-11-06T01:08:53.524Z,10.70
2022-11-06T01:11:59.496Z,8.00
2022-11-06T01:14:23.975Z,16.02
2022-11-06T01:16:50.717Z,23.40
2022-11-06T01:19:18.967Z,14.57
2022-11-06T01:21:47.167Z,11.73
2022-11-06T01:24:16.671Z,11.55
2022-11-06T01:27:04.915Z,13.93
2022-11-06T01:29:30.364Z,14.18
2022-11-06T01:31:56.987Z,11.65
2022-11-06T01:34:23.701Z,12.20
2022-11-06T01:36:50.361Z,12.82
2022-11-06T01:39:17.243Z,10.68
2022-11-06T01:41:46.685Z,11.13
2022-11-06T01:44:41.290Z,8.98
2022-11-06T01:47:28.838Z,10.88
2022-11-06T01:49:58.852Z,12.27
2022-11-06T01:52:27.162Z,10.77
2022-11-06T01:54:57.779Z,19.38
2022-11-06T01:57:24.679Z,9.63
2022-11-06T01:59:52.487Z,9.90
2022-11-06T02:02:19.464Z,10.52
2022-11-06T02:04:48.497Z,8.80
2022-11-06T02:07:16.256Z,13.95
2022-11-06T02:09:43.047Z,13.63
2022-11-06T02:12:12.691Z,11.15
2022-11-06T02:15:13.496Z,12.45
2022-11-06T02:18:02.572Z,11.10
2022-11-06T02:20:41.440Z,9.30
2022-11-06T02:23:32.975Z,10.77
2022-11-06T02:26:05.667Z,10.82
2022-11-06T02:28:40.075Z,11.35
2022-11-06T02:31:12.299Z,15.65
2022-11-06T02:33:44.914Z,12.00
2022-11-06T02:36:17.551Z,8.93
2022-11-06T02:38:48.117Z,10.48
2022-11-06T02:41:20.819Z,11.02
2022-11-06T02:43:50.377Z,11.70
2022-11-06T02:46:41.195Z,9.13
2022-11-06T02:49:15.331Z,12.68
2022-11-06T02:51:46.727Z,11.55
2022-11-06T02:54:14.541Z,10.13
2022-11-06T02:56:43.292Z,13.65
2022-11-06T02:59:14.489Z,10.15
2022-11-06T03:01:50.283Z,10.25
2022-11-06T03:04:38.179Z,12.60
2022-11-06T03:07:38.542Z,13.68
2022-11-06T03:10:06.756Z,12.88
2022-11-06T03:12:39.399Z,12.52
2022-11-06T03:15:18.210Z,15.38
2022-11-06T03:17:50.365Z,13.90
2022-11-06T03:20:27.331Z,14.32
2022-11-06T03:22:58.308Z,14.95
2022-11-06T03:25:45.076Z,14.30
2022-11-06T03:28:18.725Z,43.92
2022-11-06T03:30:51.002Z,30.42
2022-11-06T03:33:23.610Z,63.63
2022-11-06T03:35:58.323Z,86.18
2022-11-06T03:38:28.242Z,42.33
2022-11-06T03:41:08.742Z,25.75
2022-11-06T03:43:36.575Z,18.33
2022-11-06T03:46:06.738Z,19.63
2022-11-06T03:48:48.044Z,19.50
2022-11-06T03:51:18.542Z,15.02
2022-11-06T03:53:51.664Z,14.60
2022-11-06T03:57:11.985Z,12.88
2022-11-06T03:59:43.767Z,13.05
2022-11-06T04:02:13.235Z,13.38
2022-11-06T04:05:15.379Z,10.35
2022-11-06T04:08:05.773Z,13.85
2022-11-06T04:10:51.624Z,15.15
2022-11-06T04:13:39.906Z,14.27
2022-11-06T04:16:08.469Z,14.20
2022-11-06T04:18:35.167Z,11.10
2022-11-06T04:21:23.065Z,12.75
2022-11-06T04:24:35.263Z,8.98
2022-11-06T04:27:11.722Z,11.93
2022-11-06T04:30:05.038Z,12.88
2022-11-06T04:32:53.425Z,13.20
2022-11-06T04:35:34.488Z,14.25
2022-11-06T04:38:07.156Z,13.63
2022-11-06T04:40:56.584Z,11.45
2022-11-06T04:43:38.853Z,14.52
2022-11-06T04:46:06.937Z,15.85
2022-11-06T04:48:33.811Z,12.50
2022-11-06T04:51:03.695Z,11.57
2022-11-06T04:53:31.286Z,11.40
2022-11-06T04:56:02.540Z,11.75
2022-11-06T04:58:29.208Z,13.05
2022-11-06T05:00:55.972Z,13.05
2022-11-06T05:03:22.674Z,13.07
2022-11-06T05:05:49.465Z,10.80
2022-11-06T05:08:18.794Z,12.20
2022-11-06T05:10:45.689Z,12.88
2022-11-06T05:13:12.923Z,15.02
2022-11-06T05:15:39.596Z,11.18
2022-11-06T05:18:06.520Z,12.20
2022-11-06T05:20:33.656Z,12.93
2022-11-06T05:23:00.990Z,13.52
2022-11-06T05:25:29.548Z,15.63
2022-11-06T05:27:56.676Z,14.88
2022-11-06T05:30:24.454Z,12.80
2022-11-06T05:32:51.328Z,13.07
2022-11-06T05:35:19.660Z,12.20
2022-11-06T05:37:46.986Z,12.25
2022-11-06T05:40:14.114Z,18.35
2022-11-06T05:42:41.555Z,12.25
2022-11-06T05:45:09.095Z,12.48
2022-11-06T05:47:35.790Z,11.85
2022-11-06T05:50:02.485Z,11.50
2022-11-06T05:52:29.187Z,11.40
2022-11-06T05:54:55.847Z,12.10
2022-11-06T05:57:22.562Z,14.10
2022-11-06T05:59:49.275Z,11.55
2022-11-06T06:02:16.017Z,10.43
2022-11-06T06:04:42.722Z,10.00
2022-11-06T06:07:09.519Z,12.45
2022-11-06T06:09:36.275Z,12.82
2022-11-06T06:12:02.993Z,10.10
2022-11-06T06:14:29.648Z,13.20
2022-11-06T06:16:56.297Z,10.88
2022-11-06T06:19:23.024Z,13.75
2022-11-06T06:21:49.858Z,16.90
2022-11-06T06:24:16.609Z,12.38
2022-11-06T06:26:43.688Z,10.55
2022-11-06T06:29:10.380Z,14.68
2022-11-06T06:31:37.158Z,14.35
2022-11-06T06:34:03.827Z,12.45
2022-11-06T06:36:30.664Z,16.38
2022-11-06T06:38:57.468Z,12.15
2022-11-06T06:41:24.275Z,11.32
2022-11-06T06:43:51.135Z,12.13
2022-11-06T06:46:17.846Z,12.75
2022-11-06T06:48:44.473Z,12.13
2022-11-06T06:51:11.178Z,11.60
2022-11-06T06:53:37.928Z,13.38
2022-11-06T06:56:04.890Z,10.75
2022-11-06T06:58:31.922Z,13.18
2022-11-06T07:01:02.688Z,13.82
2022-11-06T07:03:29.428Z,12.82
2022-11-06T07:05:58.313Z,13.40
2022-11-06T07:08:26.604Z,13.70
2022-11-06T07:10:53.302Z,13.93
2022-11-06T07:13:19.951Z,14.20
2022-11-06T07:15:46.663Z,12.75
2022-11-06T07:18:13.535Z,17.23
2022-11-06T07:20:40.399Z,14.38
2022-11-06T07:23:07.914Z,11.80
2022-11-06T07:25:34.758Z,14.55
2022-11-06T07:28:03.144Z,12.60
2022-11-06T07:30:30.628Z,12.35
2022-11-06T07:33:00.626Z,15.48
2022-11-06T07:35:28.018Z,13.50
2022-11-06T07:37:54.726Z,17.25
2022-11-06T07:40:21.403Z,14.45
2022-11-06T07:42:48.084Z,15.27
2022-11-06T07:45:16.220Z,13.38
2022-11-06T07:47:42.886Z,12.60
2022-11-06T07:50:09.594Z,13.80
2022-11-06T07:52:36.226Z,12.77
2022-11-06T07:55:03.043Z,13.75
2022-11-06T07:57:29.764Z,16.00
2022-11-06T07:59:56.681Z,12.60
2022-11-06T08:02:23.549Z,11.60
2022-11-06T08:04:50.304Z,10.55
2022-11-06T08:07:17.009Z,14.02
2022-11-06T08:09:43.687Z,11.70
2022-11-06T08:12:10.492Z,14.05
2022-11-06T08:14:41.216Z,9.63
2022-11-06T08:17:09.670Z,11.32
2022-11-06T08:19:39.337Z,14.52
2022-11-06T08:22:06.024Z,11.60
2022-11-06T08:24:32.723Z,11.93
2022-11-06T08:26:59.746Z,10.73
2022-11-06T08:29:26.493Z,11.20
2022-11-06T08:31:53.323Z,10.98
2022-11-06T08:34:21.462Z,12.88
2022-11-06T08:36:52.176Z,8.93
2022-11-06T08:39:18.849Z,11.15
2022-11-06T08:41:45.751Z,10.52
2022-11-06T08:44:12.640Z,9.75
2022-11-06T08:46:39.510Z,10.07
2022-11-06T08:49:06.336Z,10.93
2022-11-06T08:51:34.232Z,10.50
2022-11-06T08:54:01.157Z,10.18
2022-11-06T08:56:27.970Z,11.75
2022-11-06T08:58:55.878Z,11.60
2022-11-06T09:01:24.352Z,13.40
2022-11-06T09:03:51.208Z,8.95
2022-11-06T09:06:18.159Z,9.93
2022-11-06T09:08:45.034Z,12.75
2022-11-06T09:11:12.211Z,12.60
2022-11-06T09:13:38.887Z,7.60
2022-11-06T09:16:10.030Z,8.75
2022-11-06T09:18:39.734Z,7.05
2022-11-06T09:21:06.785Z,8.30
2022-11-06T09:23:33.562Z,10.27
2022-11-06T09:26:00.334Z,6.85
2022-11-06T09:28:26.992Z,8.88
2022-11-06T09:30:55.472Z,9.00
2022-11-06T09:33:22.534Z,7.90
2022-11-06T09:35:49.448Z,6.85
2022-11-06T09:38:16.184Z,8.07
2022-11-06T09:40:48.910Z,9.40
2022-11-06T09:44:02.932Z,6.95
2022-11-06T09:46:32.631Z,5.90
2022-11-06T09:49:03.848Z,6.55
2022-11-06T09:51:37.819Z,6.90
2022-11-06T09:54:12.593Z,8.05
2022-11-06T09:56:41.814Z,7.13
2022-11-06T09:59:12.795Z,7.55
2022-11-06T10:01:46.172Z,6.68
2022-11-06T10:04:22.163Z,6.95
2022-11-06T10:06:48.895Z,6.28
2022-11-06T10:09:17.729Z,10.25
2022-11-06T10:12:02.169Z,7.78
2022-11-06T10:15:08.745Z,7.15
2022-11-06T10:17:35.524Z,4.70
2022-11-06T10:20:13.331Z,6.32
2022-11-06T10:22:41.579Z,5.35
2022-11-06T10:25:25.139Z,6.75
2022-11-06T10:28:01.872Z,6.05
2022-11-06T10:30:39.041Z,5.72
2022-11-06T10:33:20.659Z,7.70
2022-11-06T10:35:54.271Z,7.28
2022-11-06T10:38:41.470Z,9.05
2022-11-06T10:41:16.599Z,6.03
2022-11-06T10:43:49.389Z,6.72
2022-11-06T10:46:41.243Z,5.80
2022-11-06T10:49:39.843Z,9.77
2022-11-06T10:52:25.199Z,8.13
2022-11-06T10:55:01.279Z,6.65
2022-11-06T10:57:33.912Z,6.55
2022-11-06T11:00:00.927Z,4.88
2022-11-06T11:02:34.051Z,8.07
2022-11-06T11:05:00.961Z,6.60
2022-11-06T11:07:32.540Z,7.88
2022-11-06T11:10:23.414Z,7.75
2022-11-06T11:12:51.342Z,6.72
2022-11-06T11:15:19.797Z,9.00
2022-11-06T11:18:13.434Z,6.13
2022-11-06T11:20:43.720Z,5.63
2022-11-06T11:23:15.448Z,6.25
2022-11-06T11:25:47.683Z,6.93
2022-11-06T11:28:23.200Z,6.60
2022-11-06T11:30:55.286Z,6.72
2022-11-06T11:33:24.705Z,7.70
2022-11-06T11:35:53.766Z,7.47
2022-11-06T11:38:22.451Z,8.48
2022-11-06T11:40:49.663Z,6.90
2022-11-06T11:43:30.268Z,5.85
2022-11-06T11:46:06.123Z,7.00
2022-11-06T11:48:45.201Z,7.78
2022-11-06T11:51:37.162Z,9.40
2022-11-06T11:54:13.119Z,8.32
2022-11-06T11:57:08.037Z,6.80
2022-11-06T11:59:46.443Z,6.15
2022-11-06T12:02:25.339Z,8.32
2022-11-06T12:04:59.876Z,5.57
2022-11-06T12:07:29.609Z,6.68
2022-11-06T12:09:57.823Z,5.82
2022-11-06T12:12:31.365Z,11.68
2022-11-06T12:15:19.368Z,5.50
2022-11-06T12:18:07.317Z,5.68
2022-11-06T12:21:01.875Z,5.90
2022-11-06T12:23:34.888Z,6.82
2022-11-06T12:26:09.765Z,6.30
2022-11-06T12:28:38.438Z,6.68
2022-11-06T12:31:20.296Z,5.70
2022-11-06T12:34:06.567Z,5.93
2022-11-06T12:36:39.539Z,7.68
2022-11-06T12:39:16.876Z,5.55
2022-11-06T12:41:47.238Z,7.88
2022-11-06T12:44:15.133Z,6.78
2022-11-06T12:46:50.935Z,8.18
2022-11-06T12:49:55.643Z,6.10
2022-11-06T12:52:25.432Z,5.15
2022-11-06T12:55:01.402Z,9.55
2022-11-06T12:57:46.666Z,5.75
2022-11-06T13:00:18.551Z,7.72
2022-11-06T13:03:30.302Z,6.85
2022-11-06T13:06:30.968Z,6.80
2022-11-06T13:09:02.818Z,6.88
2022-11-06T13:11:45.506Z,8.70
2022-11-06T13:14:24.873Z,8.45
2022-11-06T13:17:05.804Z,4.63
2022-11-06T13:20:11.149Z,6.25
2022-11-06T13:22:56.657Z,5.80
2022-11-06T13:25:36.647Z,5.75
2022-11-06T13:28:26.995Z,6.25
2022-11-06T13:30:54.611Z,5.97
2022-11-06T13:33:30.539Z,6.65
2022-11-06T13:35:59.154Z,6.05
2022-11-06T13:38:35.672Z,5.38
2022-11-06T13:41:07.151Z,7.28
2022-11-06T13:43:38.634Z,6.97
2022-11-06T13:46:26.827Z,4.90
2022-11-06T13:49:09.401Z,6.10
2022-11-06T13:51:51.675Z,3.85
2022-11-06T13:54:21.083Z,4.03
2022-11-06T13:57:21.865Z,3.90
2022-11-06T13:59:51.812Z,7.90
2022-11-06T14:02:49.214Z,5.90
2022-11-06T14:05:40.978Z,5.82
2022-11-06T14:08:25.223Z,6.93
2022-11-06T14:10:56.590Z,5.88
2022-11-06T14:13:34.961Z,5.25
2022-11-06T14:16:21.568Z,5.75
2022-11-06T14:19:14.911Z,5.90
2022-11-06T14:21:50.095Z,7.60
2022-11-06T14:24:19.909Z,7.00
2022-11-06T14:26:48.993Z,5.18
2022-11-06T14:29:30.783Z,5.05
2022-11-06T14:32:00.479Z,4.70
2022-11-06T14:34:29.732Z,5.32
2022-11-06T14:36:56.605Z,5.25
2022-11-06T14:39:53.057Z,6.10
2022-11-06T14:42:30.602Z,4.68
2022-11-06T14:44:59.743Z,5.88
2022-11-06T14:47:56.920Z,5.82
2022-11-06T14:50:37.542Z,5.65
2022-11-06T14:53:25.998Z,3.92
2022-11-06T14:56:01.313Z,4.75
2022-11-06T14:58:36.848Z,6.82
2022-11-06T15:01:09.805Z,5.00
2022-11-06T15:03:56.714Z,5.18
2022-11-06T15:06:32.557Z,3.78
2022-11-06T15:09:12.900Z,4.95
2022-11-06T15:11:47.427Z,5.90
2022-11-06T15:14:14.871Z,5.10
2022-11-06T15:16:50.837Z,10.02
2022-11-06T15:19:23.770Z,5.95
2022-11-06T15:22:14.992Z,4.88
2022-11-06T15:24:49.601Z,6.43
2022-11-06T15:27:19.030Z,4.85
2022-11-06T15:29:49.712Z,4.68
2022-11-06T15:32:19.676Z,6.90
2022-11-06T15:35:07.853Z,4.88
2022-11-06T15:37:50.846Z,4.97
2022-11-06T15:40:23.253Z,7.45
2022-11-06T15:42:50.102Z,5.20
2022-11-06T15:45:16.857Z,7.20
2022-11-06T15:48:20.792Z,4.32
2022-11-06T15:50:47.721Z,4.75
2022-11-06T15:53:15.421Z,5.00
2022-11-06T15:56:07.952Z,6.85
2022-11-06T15:58:37.543Z,5.32
2022-11-06T16:01:06.448Z,5.93
2022-11-06T16:03:44.813Z,11.60
2022-11-06T16:06:11.666Z,8.68
2022-11-06T16:08:39.227Z,7.68
2022-11-06T16:11:13.101Z,6.80
2022-11-06T16:13:40.385Z,9.45
2022-11-06T16:16:31.647Z,8.05
2022-11-06T16:18:58.407Z,10.15
2022-11-06T16:21:28.376Z,9.38
2022-11-06T16:24:02.319Z,8.43
2022-11-06T16:26:32.977Z,8.90
2022-11-06T16:29:00.723Z,10.23
2022-11-06T16:31:30.351Z,10.68
2022-11-06T16:34:04.003Z,11.95
2022-11-06T16:36:50.112Z,12.10
2022-11-06T16:39:16.939Z,8.13
2022-11-06T16:42:20.508Z,8.43
2022-11-06T16:44:51.719Z,9.45
2022-11-06T16:47:20.208Z,9.88
2022-11-06T16:49:53.496Z,8.50
2022-11-06T16:52:25.814Z,9.05
2022-11-06T16:54:56.251Z,12.77
2022-11-06T16:57:26.132Z,12.95
2022-11-06T17:00:02.348Z,10.70
2022-11-06T17:02:32.664Z,11.07
2022-11-06T17:05:17.937Z,9.70
2022-11-06T17:07:45.753Z,12.18
2022-11-06T17:10:34.199Z,13.00
2022-11-06T17:13:22.135Z,10.27
2022-11-06T17:16:00.286Z,10.40
2022-11-06T17:18:32.160Z,12.15
2022-11-06T17:21:06.925Z,9.10
2022-11-06T17:23:34.218Z,9.18
2022-11-06T17:26:13.522Z,10.18
2022-11-06T17:28:40.597Z,9.93
2022-11-06T17:31:16.949Z,9.52
2022-11-06T17:33:46.301Z,9.98
2022-11-06T17:36:27.330Z,10.32
2022-11-06T17:38:55.424Z,9.75
2022-11-06T17:41:32.696Z,12.35
2022-11-06T17:44:03.775Z,11.10
2022-11-06T17:46:33.559Z,10.95
2022-11-06T17:49:02.468Z,9.70
2022-11-06T17:51:48.382Z,7.55
2022-11-06T17:54:15.709Z,8.68
2022-11-06T17:56:44.039Z,8.32
2022-11-06T17:59:12.166Z,8.15
2022-11-06T18:01:39.056Z,9.77
2022-11-06T18:04:07.231Z,9.80
2022-11-06T18:06:33.982Z,9.38
2022-11-06T18:09:01.970Z,8.00
2022-11-06T18:11:29.125Z,9.25
2022-11-06T18:13:55.934Z,11.98
2022-11-06T18:16:28.197Z,7.32
2022-11-06T18:18:55.929Z,10.32
2022-11-06T18:21:24.078Z,9.48
2022-11-06T18:23:50.862Z,9.55
2022-11-06T18:26:18.589Z,11.20
2022-11-06T18:28:45.255Z,9.68
2022-11-06T18:31:11.920Z,9.25
2022-11-06T18:33:38.689Z,9.52
2022-11-06T18:36:07.586Z,11.55
2022-11-06T18:38:34.902Z,14.95
2022-11-06T18:41:09.529Z,9.18
2022-11-06T18:43:36.339Z,12.07
2022-11-06T18:46:11.113Z,11.23
2022-11-06T18:48:38.239Z,11.45
2022-11-06T18:51:09.614Z,11.88
2022-11-06T18:53:37.574Z,12.75
2022-11-06T18:56:04.614Z,10.90
2022-11-06T18:58:31.528Z,11.23
2022-11-06T19:01:05.022Z,11.63
2022-11-06T19:03:33.170Z,11.57
2022-11-06T19:06:00.281Z,11.30
2022-11-06T19:08:27.444Z,11.52
2022-11-06T19:10:54.276Z,12.02
2022-11-06T19:13:24.066Z,14.02
2022-11-06T19:15:50.987Z,14.27
2022-11-06T19:18:17.938Z,12.95
2022-11-06T19:20:45.901Z,12.90
2022-11-06T19:23:14.518Z,14.07
2022-11-06T19:25:42.014Z,12.10
2022-11-06T19:28:09.650Z,11.98
2022-11-06T19:30:36.799Z,11.98
2022-11-06T19:33:03.770Z,10.57
2022-11-06T19:35:32.057Z,15.40
2022-11-06T19:38:00.822Z,11.98
2022-11-06T19:40:31.979Z,11.50
2022-11-06T19:43:00.952Z,12.35
2022-11-06T19:45:28.329Z,10.95
2022-11-06T19:47:55.056Z,16.50
2022-11-06T19:50:39.227Z,14.73
2022-11-06T19:53:08.543Z,13.23
2022-11-06T19:55:39.138Z,12.18
2022-11-06T19:58:05.854Z,11.45
2022-11-06T20:00:32.659Z,14.82
2022-11-06T20:02:59.445Z,16.85
2022-11-06T20:05:26.198Z,16.75
2022-11-06T20:07:52.902Z,11.65
2022-11-06T20:10:20.657Z,14.35
2022-11-06T20:12:47.690Z,13.95
2022-11-06T20:15:18.763Z,12.52
2022-11-06T20:17:51.975Z,13.20
2022-11-06T20:23:14.717Z,14.75
2022-11-06T20:25:45.300Z,13.15
2022-11-06T20:28:12.290Z,10.45
2022-11-06T20:31:01.516Z,13.85
2022-11-06T20:33:37.917Z,11.30
2022-11-06T20:36:36.048Z,12.20
2022-11-06T20:39:19.018Z,15.05
2022-11-06T20:42:00.580Z,13.20
2022-11-06T20:45:09.008Z,12.23
2022-11-06T20:47:36.747Z,13.15
2022-11-06T20:50:03.760Z,14.80
2022-11-06T20:52:31.702Z,13.63
2022-11-06T20:55:00.032Z,12.90
2022-11-06T20:57:26.939Z,14.50
2022-11-06T20:59:53.739Z,13.23
2022-11-06T21:02:20.572Z,13.68
2022-11-06T21:04:47.450Z,12.65
2022-11-06T21:07:14.381Z,14.43
2022-11-06T21:09:41.154Z,14.80
2022-11-06T21:12:11.579Z,12.52
2022-11-06T21:14:38.223Z,13.63
2022-11-06T21:17:05.142Z,12.48
2022-11-06T21:19:33.261Z,16.02
2022-11-06T21:22:00.013Z,14.82
2022-11-06T21:24:27.074Z,15.43
2022-11-06T21:26:55.991Z,14.38
2022-11-06T21:29:23.905Z,15.15
2022-11-06T21:31:51.272Z,16.08
2022-11-06T21:34:20.089Z,19.70
2022-11-06T21:36:47.364Z,16.75
2022-11-06T21:39:17.700Z,15.20
2022-11-06T21:41:44.923Z,16.52
2022-11-06T21:44:17.254Z,15.95
2022-11-06T21:46:45.591Z,19.23
2022-11-06T21:49:13.926Z,20.35
2022-11-06T21:51:40.822Z,17.00
2022-11-06T21:54:26.137Z,17.83
2022-11-06T21:56:54.643Z,15.90
2022-11-06T21:59:25.287Z,14.15
2022-11-06T22:01:52.284Z,17.52
2022-11-06T22:04:19.097Z,15.80
2022-11-06T22:06:45.755Z,18.38
2022-11-06T22:09:14.163Z,18.05
2022-11-06T22:11:42.884Z,15.93
2022-11-06T22:14:16.691Z,17.48
2022-11-06T22:16:45.902Z,16.88
2022-11-06T22:19:13.680Z,16.90
2022-11-06T22:21:40.775Z,15.63
2022-11-06T22:24:07.950Z,18.48
2022-11-06T22:26:35.593Z,16.60
2022-11-06T22:29:06.223Z,17.77
2022-11-06T22:31:33.272Z,16.65
2022-11-06T22:34:00.308Z,18.70
2022-11-06T22:36:27.233Z,16.95
2022-11-06T22:38:54.059Z,17.63
2022-11-06T22:41:23.644Z,15.70
2022-11-06T22:43:50.689Z,19.20
2022-11-06T22:46:20.118Z,16.80
2022-11-06T22:48:47.312Z,16.83
2022-11-06T22:51:16.292Z,15.30
2022-11-06T22:53:43.090Z,19.95
2022-11-06T22:56:10.157Z,20.45
2022-11-06T22:58:36.807Z,16.48
2022-11-06T23:01:03.783Z,19.92
2022-11-06T23:03:31.161Z,19.02
2022-11-06T23:05:58.445Z,19.90
2022-11-06T23:08:26.331Z,17.63
2022-11-06T23:10:54.456Z,16.38
2022-11-06T23:13:21.931Z,15.18
2022-11-06T23:15:48.976Z,14.90
2022-11-06T23:18:16.034Z,17.75
2022-11-06T23:20:42.729Z,17.90
2022-11-06T23:23:09.484Z,17.75
2022-11-06T23:25:36.339Z,19.85
2022-11-06T23:28:03.185Z,15.30
2022-11-06T23:30:33.001Z,15.38
2022-11-06T23:32:59.932Z,14.32
2022-11-06T23:35:32.248Z,16.65
2022-11-06T23:37:59.595Z,16.27
2022-11-06T23:40:26.682Z,15.07
2022-11-06T23:42:56.210Z,16.40
2022-11-06T23:45:41.413Z,15.60
2022-11-06T23:48:13.424Z,14.05
2022-11-06T23:50:40.980Z,14.80
2022-11-06T23:53:07.739Z,15.38
2022-11-06T23:55:34.425Z,14.55
2022-11-06T23:58:01.186Z,16.70
